sensor_id;sensor_type;location;lat;lon;timestamp;pressure;altitude;pressure_sealevel;temperature;humidity
23659;BME280;12006;42.666;23.326;2023-03-01T00:01:07;-24018.81;;;7.12;100.00
23659;BME280;12006;42.666;23.326;2023-03-01T00:03:33;-24019.88;;;7.15;100.00
23659;BME280;12006;42.666;23.326;2023-03-01T00:06:00;-24019.69;;;7.14;100.00
23659;BME280;12006;42.666;23.326;2023-03-01T00:08:26;-24019.16;;;7.13;100.00
23659;BME280;12006;42.666;23.326;2023-03-01T00:11:08;-24016.06;;;7.04;100.00
23659;BME280;12006;42.666;23.326;2023-03-01T00:13:34;-24015.22;;;7.01;100.00
23659;BME280;12006;42.666;23.326;2023-03-01T00:16:08;-24021.25;;;7.19;100.00
23659;BME280;12006;42.666;23.326;2023-03-01T00:18:36;-24020.88;;;7.18;100.00
23659;BME280;12006;42.666;23.326;2023-03-01T00:21:02;-24020.38;;;7.16;100.00
23659;BME280;12006;42.666;23.326;2023-03-01T00:23:28;-24019.34;;;7.13;100.00
23659;BME280;12006;42.666;23.326;2023-03-01T00:25:54;-24020.03;;;7.15;100.00
23659;BME280;12006;42.666;23.326;2023-03-01T00:28:20;-24019.16;;;7.13;100.00
23659;BME280;12006;42.666;23.326;2023-03-01T00:30:46;-24021.06;;;7.18;100.00
23659;BME280;12006;42.666;23.326;2023-03-01T00:33:12;-24019.50;;;7.14;100.00
23659;BME280;12006;42.666;23.326;2023-03-01T00:35:37;-24020.53;;;7.17;100.00
23659;BME280;12006;42.666;23.326;2023-03-01T00:38:03;-24020.19;;;7.16;100.00
23659;BME280;12006;42.666;23.326;2023-03-01T00:40:30;-24023.81;;;7.26;100.00
23659;BME280;12006;42.666;23.326;2023-03-01T00:42:56;-24020.53;;;7.17;100.00
23659;BME280;12006;42.666;23.326;2023-03-01T00:45:21;-24017.78;;;7.09;100.00
23659;BME280;12006;42.666;23.326;2023-03-01T00:47:48;-24019.34;;;7.13;100.00
23659;BME280;12006;42.666;23.326;2023-03-01T00:50:13;-24019.00;;;7.12;100.00
23659;BME280;12006;42.666;23.326;2023-03-01T00:52:39;-24023.63;;;7.25;100.00
23659;BME280;12006;42.666;23.326;2023-03-01T00:55:05;-24019.50;;;7.14;100.00
23659;BME280;12006;42.666;23.326;2023-03-01T00:57:30;-24019.69;;;7.14;100.00
23659;BME280;12006;42.666;23.326;2023-03-01T00:59:56;-24015.38;;;7.02;100.00
23659;BME280;12006;42.666;23.326;2023-03-01T01:02:21;-24014.19;;;6.98;100.00
23659;BME280;12006;42.666;23.326;2023-03-01T01:04:47;-24013.16;;;6.95;100.00
23659;BME280;12006;42.666;23.326;2023-03-01T01:07:13;-24013.66;;;6.97;100.00
23659;BME280;12006;42.666;23.326;2023-03-01T01:09:39;-24013.16;;;6.95;100.00
23659;BME280;12006;42.666;23.326;2023-03-01T01:12:05;-24010.91;;;6.89;100.00
23659;BME280;12006;42.666;23.326;2023-03-01T01:14:31;-24011.59;;;6.91;100.00
23659;BME280;12006;42.666;23.326;2023-03-01T01:16:56;-24010.22;;;6.87;100.00
23659;BME280;12006;42.666;23.326;2023-03-01T01:19:23;-24010.22;;;6.87;100.00
23659;BME280;12006;42.666;23.326;2023-03-01T01:21:48;-24008.84;;;6.83;100.00
23659;BME280;12006;42.666;23.326;2023-03-01T01:24:15;-24003.34;;;6.67;100.00
23659;BME280;12006;42.666;23.326;2023-03-01T01:26:41;-24004.72;;;6.71;100.00
23659;BME280;12006;42.666;23.326;2023-03-01T01:29:07;-24004.03;;;6.69;100.00
23659;BME280;12006;42.666;23.326;2023-03-01T01:31:35;-24003.00;;;6.66;100.00
23659;BME280;12006;42.666;23.326;2023-03-01T01:34:03;-24001.97;;;6.63;100.00
23659;BME280;12006;42.666;23.326;2023-03-01T01:36:29;-24004.22;;;6.69;100.00
23659;BME280;12006;42.666;23.326;2023-03-01T01:38:55;-24001.63;;;6.62;100.00
23659;BME280;12006;42.666;23.326;2023-03-01T01:41:22;-24003.19;;;6.66;100.00
23659;BME280;12006;42.666;23.326;2023-03-01T01:44:08;-24002.84;;;6.65;100.00
23659;BME280;12006;42.666;23.326;2023-03-01T01:46:44;-24000.94;;;6.60;100.00
23659;BME280;12006;42.666;23.326;2023-03-01T01:49:19;-23998.38;;;6.53;100.00
23659;BME280;12006;42.666;23.326;2023-03-01T01:51:49;-23996.28;;;6.47;100.00
23659;BME280;12006;42.666;23.326;2023-03-01T01:54:22;-23994.56;;;6.42;100.00
23659;BME280;12006;42.666;23.326;2023-03-01T01:56:55;-23996.28;;;6.47;100.00
23659;BME280;12006;42.666;23.326;2023-03-01T01:59:24;-23994.75;;;6.42;100.00
23659;BME280;12006;42.666;23.326;2023-03-01T02:01:53;-23997.16;;;6.49;100.00
23659;BME280;12006;42.666;23.326;2023-03-01T02:04:19;-23999.75;;;6.57;100.00
23659;BME280;12006;42.666;23.326;2023-03-01T02:06:51;-23999.06;;;6.55;100.00
23659;BME280;12006;42.666;23.326;2023-03-01T02:09:20;-24000.59;;;6.59;100.00
23659;BME280;12006;42.666;23.326;2023-03-01T02:11:47;-24001.47;;;6.62;100.00
23659;BME280;12006;42.666;23.326;2023-03-01T02:14:14;-24000.59;;;6.59;100.00
23659;BME280;12006;42.666;23.326;2023-03-01T02:16:41;-24001.47;;;6.62;100.00
23659;BME280;12006;42.666;23.326;2023-03-01T02:19:08;-23999.56;;;6.56;100.00
23659;BME280;12006;42.666;23.326;2023-03-01T02:22:13;-23998.53;;;6.53;100.00
23659;BME280;12006;42.666;23.326;2023-03-01T02:25:00;-23997.16;;;6.49;100.00
23659;BME280;12006;42.666;23.326;2023-03-01T02:27:49;-24001.28;;;6.61;100.00
23659;BME280;12006;42.666;23.326;2023-03-01T02:30:20;-24002.66;;;6.65;100.00
23659;BME280;12006;42.666;23.326;2023-03-01T02:32:47;-24004.38;;;6.70;100.00
23659;BME280;12006;42.666;23.326;2023-03-01T02:35:16;-24001.97;;;6.63;100.00
23659;BME280;12006;42.666;23.326;2023-03-01T02:37:43;-24003.69;;;6.68;100.00
23659;BME280;12006;42.666;23.326;2023-03-01T02:40:13;-24003.88;;;6.68;100.00
23659;BME280;12006;42.666;23.326;2023-03-01T02:42:49;-24004.38;;;6.70;100.00
23659;BME280;12006;42.666;23.326;2023-03-01T02:45:15;-24007.47;;;6.79;100.00
23659;BME280;12006;42.666;23.326;2023-03-01T02:47:41;-24006.28;;;6.75;100.00
23659;BME280;12006;42.666;23.326;2023-03-01T02:53:19;-24010.22;;;6.87;100.00
23659;BME280;12006;42.666;23.326;2023-03-01T02:55:49;-24007.13;;;6.78;100.00
23659;BME280;12006;42.666;23.326;2023-03-01T02:58:15;-24001.63;;;6.62;100.00
23659;BME280;12006;42.666;23.326;2023-03-01T03:00:42;-24003.00;;;6.66;100.00
23659;BME280;12006;42.666;23.326;2023-03-01T03:03:21;-24005.06;;;6.72;100.00
23659;BME280;12006;42.666;23.326;2023-03-01T03:05:47;-24005.59;;;6.73;100.00
23659;BME280;12006;42.666;23.326;2023-03-01T03:08:14;-24004.91;;;6.71;100.00
23659;BME280;12006;42.666;23.326;2023-03-01T03:10:42;-24011.44;;;6.90;100.00
23659;BME280;12006;42.666;23.326;2023-03-01T03:13:12;-24012.97;;;6.95;100.00
23659;BME280;12006;42.666;23.326;2023-03-01T03:15:39;-24010.56;;;6.88;100.00
23659;BME280;12006;42.666;23.326;2023-03-01T03:18:08;-24008.84;;;6.83;100.00
23659;BME280;12006;42.666;23.326;2023-03-01T03:20:34;-24009.53;;;6.85;100.00
23659;BME280;12006;42.666;23.326;2023-03-01T03:23:00;-24008.84;;;6.83;100.00
23659;BME280;12006;42.666;23.326;2023-03-01T03:25:27;-24008.34;;;6.81;100.00
23659;BME280;12006;42.666;23.326;2023-03-01T03:27:53;-24010.06;;;6.86;100.00
23659;BME280;12006;42.666;23.326;2023-03-01T03:30:26;-24010.41;;;6.87;100.00
23659;BME280;12006;42.666;23.326;2023-03-01T03:32:52;-24009.03;;;6.83;100.00
23659;BME280;12006;42.666;23.326;2023-03-01T03:38:29;-24006.97;;;6.77;100.00
23659;BME280;12006;42.666;23.326;2023-03-01T03:41:03;-24011.78;;;6.91;100.00
23659;BME280;12006;42.666;23.326;2023-03-01T03:43:32;-24015.38;;;7.02;100.00
23659;BME280;12006;42.666;23.326;2023-03-01T03:45:58;-24014.69;;;7.00;100.00
23659;BME280;12006;42.666;23.326;2023-03-01T03:48:24;-24009.19;;;6.84;100.00
23659;BME280;12006;42.666;23.326;2023-03-01T03:50:51;-24010.56;;;6.88;100.00
23659;BME280;12006;42.666;23.326;2023-03-01T03:53:19;-24007.81;;;6.80;100.00
23659;BME280;12006;42.666;23.326;2023-03-01T03:55:44;-24007.66;;;6.79;100.00
23659;BME280;12006;42.666;23.326;2023-03-01T03:58:11;-24008.84;;;6.83;100.00
23659;BME280;12006;42.666;23.326;2023-03-01T04:00:39;-24005.06;;;6.72;100.00
23659;BME280;12006;42.666;23.326;2023-03-01T04:03:05;-24004.03;;;6.69;100.00
23659;BME280;12006;42.666;23.326;2023-03-01T04:05:31;-24007.13;;;6.78;100.00
23659;BME280;12006;42.666;23.326;2023-03-01T04:07:57;-24004.72;;;6.71;100.00
23659;BME280;12006;42.666;23.326;2023-03-01T04:10:30;-24000.25;;;6.58;100.00
23659;BME280;12006;42.666;23.326;2023-03-01T04:12:56;-23998.53;;;6.53;100.00
23659;BME280;12006;42.666;23.326;2023-03-01T04:15:22;-23998.03;;;6.52;100.00
23659;BME280;12006;42.666;23.326;2023-03-01T04:17:50;-23993.53;;;6.39;100.00
23659;BME280;12006;42.666;23.326;2023-03-01T04:20:22;-23999.22;;;6.55;100.00
23659;BME280;12006;42.666;23.326;2023-03-01T04:22:55;-24000.78;;;6.60;100.00
23659;BME280;12006;42.666;23.326;2023-03-01T04:25:22;-23998.88;;;6.54;100.00
23659;BME280;12006;42.666;23.326;2023-03-01T04:27:47;-24001.28;;;6.61;100.00
23659;BME280;12006;42.666;23.326;2023-03-01T04:30:13;-23999.91;;;6.57;100.00
23659;BME280;12006;42.666;23.326;2023-03-01T04:32:39;-24000.25;;;6.58;100.00
23659;BME280;12006;42.666;23.326;2023-03-01T04:35:04;-23995.09;;;6.43;100.00
23659;BME280;12006;42.666;23.326;2023-03-01T04:37:30;-23993.88;;;6.40;100.00
23659;BME280;12006;42.666;23.326;2023-03-01T04:39:55;-23995.44;;;6.44;100.00
23659;BME280;12006;42.666;23.326;2023-03-01T04:42:20;-23994.75;;;6.42;100.00
23659;BME280;12006;42.666;23.326;2023-03-01T04:44:46;-23998.88;;;6.54;100.00
23659;BME280;12006;42.666;23.326;2023-03-01T04:47:12;-23998.38;;;6.53;100.00
23659;BME280;12006;42.666;23.326;2023-03-01T04:49:38;-24000.94;;;6.60;100.00
23659;BME280;12006;42.666;23.326;2023-03-01T04:52:04;-23997.00;;;6.49;100.00
23659;BME280;12006;42.666;23.326;2023-03-01T04:54:31;-24003.00;;;6.66;100.00
23659;BME280;12006;42.666;23.326;2023-03-01T04:56:58;-24002.84;;;6.65;100.00
23659;BME280;12006;42.666;23.326;2023-03-01T04:59:23;-24001.28;;;6.61;100.00
23659;BME280;12006;42.666;23.326;2023-03-01T05:01:53;-24001.97;;;6.63;100.00
23659;BME280;12006;42.666;23.326;2023-03-01T05:04:23;-24004.38;;;6.70;100.00
23659;BME280;12006;42.666;23.326;2023-03-01T05:06:49;-24004.03;;;6.69;100.00
23659;BME280;12006;42.666;23.326;2023-03-01T05:09:15;-24004.22;;;6.69;100.00
23659;BME280;12006;42.666;23.326;2023-03-01T05:11:41;-24004.03;;;6.69;100.00
23659;BME280;12006;42.666;23.326;2023-03-01T05:14:08;-24001.47;;;6.62;100.00
23659;BME280;12006;42.666;23.326;2023-03-01T05:16:34;-24001.47;;;6.62;100.00
23659;BME280;12006;42.666;23.326;2023-03-01T05:19:01;-23999.75;;;6.57;100.00
23659;BME280;12006;42.666;23.326;2023-03-01T05:21:39;-23997.16;;;6.49;100.00
23659;BME280;12006;42.666;23.326;2023-03-01T05:24:24;-24000.59;;;6.59;100.00
23659;BME280;12006;42.666;23.326;2023-03-01T05:26:50;-24001.28;;;6.61;100.00
23659;BME280;12006;42.666;23.326;2023-03-01T05:29:20;-23999.41;;;6.56;100.00
23659;BME280;12006;42.666;23.326;2023-03-01T05:31:57;-24000.25;;;6.58;100.00
23659;BME280;12006;42.666;23.326;2023-03-01T05:34:32;-24003.69;;;6.68;100.00
23659;BME280;12006;42.666;23.326;2023-03-01T05:36:58;-24006.44;;;6.76;100.00
23659;BME280;12006;42.666;23.326;2023-03-01T05:39:25;-24006.97;;;6.77;100.00
23659;BME280;12006;42.666;23.326;2023-03-01T05:41:58;-24005.75;;;6.74;100.00
23659;BME280;12006;42.666;23.326;2023-03-01T05:44:25;-24007.47;;;6.79;100.00
23659;BME280;12006;42.666;23.326;2023-03-01T05:46:51;-24008.16;;;6.81;100.00
23659;BME280;12006;42.666;23.326;2023-03-01T05:49:17;-24004.91;;;6.71;100.00
23659;BME280;12006;42.666;23.326;2023-03-01T05:51:48;-24001.13;;;6.61;100.00
23659;BME280;12006;42.666;23.326;2023-03-01T05:54:14;-24002.31;;;6.64;100.00
23659;BME280;12006;42.666;23.326;2023-03-01T05:56:39;-24001.81;;;6.63;100.00
23659;BME280;12006;42.666;23.326;2023-03-01T05:59:05;-24000.94;;;6.60;100.00
23659;BME280;12006;42.666;23.326;2023-03-01T06:01:35;-24005.41;;;6.73;100.00
23659;BME280;12006;42.666;23.326;2023-03-01T06:04:01;-24000.25;;;6.58;100.00
23659;BME280;12006;42.666;23.326;2023-03-01T06:06:27;-24005.41;;;6.73;100.00
23659;BME280;12006;42.666;23.326;2023-03-01T06:08:54;-24007.47;;;6.79;100.00
23659;BME280;12006;42.666;23.326;2023-03-01T06:11:21;-24006.97;;;6.77;100.00
23659;BME280;12006;42.666;23.326;2023-03-01T06:13:46;-24006.44;;;6.76;100.00
23659;BME280;12006;42.666;23.326;2023-03-01T06:16:13;-24005.06;;;6.72;100.00
23659;BME280;12006;42.666;23.326;2023-03-01T06:18:39;-24004.03;;;6.69;100.00
23659;BME280;12006;42.666;23.326;2023-03-01T06:21:05;-24008.16;;;6.81;100.00
23659;BME280;12006;42.666;23.326;2023-03-01T06:23:31;-24008.16;;;6.81;100.00
23659;BME280;12006;42.666;23.326;2023-03-01T06:25:56;-24000.94;;;6.60;100.00
23659;BME280;12006;42.666;23.326;2023-03-01T06:28:22;-24005.41;;;6.73;100.00
23659;BME280;12006;42.666;23.326;2023-03-01T06:30:49;-24007.31;;;6.78;100.00
23659;BME280;12006;42.666;23.326;2023-03-01T06:33:14;-24007.31;;;6.78;100.00
23659;BME280;12006;42.666;23.326;2023-03-01T06:35:40;-24009.03;;;6.83;100.00
23659;BME280;12006;42.666;23.326;2023-03-01T06:38:05;-24011.25;;;6.90;100.00
23659;BME280;12006;42.666;23.326;2023-03-01T06:40:31;-24010.56;;;6.88;100.00
23659;BME280;12006;42.666;23.326;2023-03-01T06:42:57;-24011.09;;;6.89;100.00
23659;BME280;12006;42.666;23.326;2023-03-01T06:45:23;-24010.41;;;6.87;100.00
23659;BME280;12006;42.666;23.326;2023-03-01T06:47:49;-24014.00;;;6.98;100.00
23659;BME280;12006;42.666;23.326;2023-03-01T06:50:16;-24015.72;;;7.03;100.00
23659;BME280;12006;42.666;23.326;2023-03-01T06:52:41;-24017.44;;;7.08;100.00
23659;BME280;12006;42.666;23.326;2023-03-01T06:55:09;-24017.97;;;7.09;100.00
23659;BME280;12006;42.666;23.326;2023-03-01T06:57:34;-24019.34;;;7.13;100.00
23659;BME280;12006;42.666;23.326;2023-03-01T07:00:00;-24017.97;;;7.09;100.00
23659;BME280;12006;42.666;23.326;2023-03-01T07:02:25;-24015.91;;;7.03;100.00
23659;BME280;12006;42.666;23.326;2023-03-01T07:04:51;-24014.19;;;6.98;100.00
23659;BME280;12006;42.666;23.326;2023-03-01T07:07:17;-24008.34;;;6.81;100.00
23659;BME280;12006;42.666;23.326;2023-03-01T07:09:46;-24007.81;;;6.80;100.00
23659;BME280;12006;42.666;23.326;2023-03-01T07:12:13;-24009.72;;;6.85;100.00
23659;BME280;12006;42.666;23.326;2023-03-01T07:14:39;-24010.22;;;6.87;100.00
23659;BME280;12006;42.666;23.326;2023-03-01T07:17:04;-24012.28;;;6.93;100.00
23659;BME280;12006;42.666;23.326;2023-03-01T07:19:30;-24013.66;;;6.97;100.00
23659;BME280;12006;42.666;23.326;2023-03-01T07:21:55;-24014.34;;;6.99;100.00
23659;BME280;12006;42.666;23.326;2023-03-01T07:24:21;-24018.31;;;7.10;100.00
23659;BME280;12006;42.666;23.326;2023-03-01T07:26:50;-24019.16;;;7.13;100.00
23659;BME280;12006;42.666;23.326;2023-03-01T07:29:17;-24020.88;;;7.18;100.00
23659;BME280;12006;42.666;23.326;2023-03-01T07:31:42;-24024.34;;;7.27;100.00
23659;BME280;12006;42.666;23.326;2023-03-01T07:34:08;-24022.25;;;7.22;100.00
23659;BME280;12006;42.666;23.326;2023-03-01T07:36:33;-24027.44;;;7.36;100.00
23659;BME280;12006;42.666;23.326;2023-03-01T07:38:59;-24035.34;;;7.59;100.00
23659;BME280;12006;42.666;23.326;2023-03-01T07:41:27;-24033.28;;;7.53;100.00
23659;BME280;12006;42.666;23.326;2023-03-01T07:43:53;-24033.63;;;7.54;100.00
23659;BME280;12006;42.666;23.326;2023-03-01T07:46:18;-24036.38;;;7.62;100.00
23659;BME280;12006;42.666;23.326;2023-03-01T07:48:44;-24040.84;;;7.75;100.00
23659;BME280;12006;42.666;23.326;2023-03-01T07:51:09;-24044.28;;;7.85;100.00
23659;BME280;12006;42.666;23.326;2023-03-01T07:53:35;-24045.47;;;7.88;100.00
23659;BME280;12006;42.666;23.326;2023-03-01T07:56:05;-24042.56;;;7.80;100.00
23659;BME280;12006;42.666;23.326;2023-03-01T07:58:31;-24046.34;;;7.91;100.00
23659;BME280;12006;42.666;23.326;2023-03-01T08:01:01;-24044.28;;;7.85;100.00
23659;BME280;12006;42.666;23.326;2023-03-01T08:03:26;-24052.88;;;8.10;100.00
23659;BME280;12006;42.666;23.326;2023-03-01T08:05:52;-24052.53;;;8.09;100.00
23659;BME280;12006;42.666;23.326;2023-03-01T08:08:17;-24050.13;;;8.02;100.00
23659;BME280;12006;42.666;23.326;2023-03-01T08:10:42;-24059.06;;;8.28;100.00
23659;BME280;12006;42.666;23.326;2023-03-01T08:13:08;-24053.22;;;8.11;100.00
23659;BME280;12006;42.666;23.326;2023-03-01T08:15:33;-24061.81;;;8.36;100.00
23659;BME280;12006;42.666;23.326;2023-03-01T08:17:58;-24052.69;;;8.09;100.00
23659;BME280;12006;42.666;23.326;2023-03-01T08:20:24;-24049.09;;;7.99;100.00
23659;BME280;12006;42.666;23.326;2023-03-01T08:22:49;-24051.31;;;8.05;100.00
23659;BME280;12006;42.666;23.326;2023-03-01T08:25:15;-24055.97;;;8.19;100.00
23659;BME280;12006;42.666;23.326;2023-03-01T08:27:40;-24055.97;;;8.19;100.00
23659;BME280;12006;42.666;23.326;2023-03-01T08:30:06;-24053.22;;;8.11;100.00
23659;BME280;12006;42.666;23.326;2023-03-01T08:32:39;-24053.38;;;8.11;100.00
23659;BME280;12006;42.666;23.326;2023-03-01T08:35:05;-24053.03;;;8.10;100.00
23659;BME280;12006;42.666;23.326;2023-03-01T08:37:30;-24055.97;;;8.19;100.00
23659;BME280;12006;42.666;23.326;2023-03-01T08:39:59;-24063.00;;;8.39;100.00
23659;BME280;12006;42.666;23.326;2023-03-01T08:42:25;-24069.38;;;8.57;100.00
23659;BME280;12006;42.666;23.326;2023-03-01T08:44:50;-24067.47;;;8.52;100.00
23659;BME280;12006;42.666;23.326;2023-03-01T08:47:16;-24065.25;;;8.45;100.00
23659;BME280;12006;42.666;23.326;2023-03-01T08:49:41;-24067.31;;;8.51;100.00
23659;BME280;12006;42.666;23.326;2023-03-01T08:52:06;-24068.00;;;8.53;100.00
23659;BME280;12006;42.666;23.326;2023-03-01T08:54:32;-24069.72;;;8.58;100.00
23659;BME280;12006;42.666;23.326;2023-03-01T08:56:57;-24073.50;;;8.69;100.00
23659;BME280;12006;42.666;23.326;2023-03-01T08:59:25;-24073.84;;;8.70;100.00
23659;BME280;12006;42.666;23.326;2023-03-01T09:01:50;-24079.00;;;8.85;100.00
23659;BME280;12006;42.666;23.326;2023-03-01T09:04:15;-24088.78;;;9.13;100.00
23659;BME280;12006;42.666;23.326;2023-03-01T09:06:42;-24085.69;;;9.04;100.00
23659;BME280;12006;42.666;23.326;2023-03-01T09:09:15;-24083.13;;;8.97;100.00
23659;BME280;12006;42.666;23.326;2023-03-01T09:11:42;-24085.88;;;9.05;100.00
23659;BME280;12006;42.666;23.326;2023-03-01T09:14:08;-24092.03;;;9.23;100.00
23659;BME280;12006;42.666;23.326;2023-03-01T09:16:33;-24101.66;;;9.51;100.00
23659;BME280;12006;42.666;23.326;2023-03-01T09:19:02;-24101.31;;;9.50;100.00
23659;BME280;12006;42.666;23.326;2023-03-01T09:21:27;-24098.91;;;9.43;100.00
23659;BME280;12006;42.666;23.326;2023-03-01T09:23:53;-24099.78;;;9.45;100.00
23659;BME280;12006;42.666;23.326;2023-03-01T09:26:20;-24083.28;;;8.98;100.00
23659;BME280;12006;42.666;23.326;2023-03-01T09:28:50;-24098.22;;;9.41;100.00
23659;BME280;12006;42.666;23.326;2023-03-01T09:31:17;-24103.38;;;9.56;100.00
23659;BME280;12006;42.666;23.326;2023-03-01T09:33:45;-24108.19;;;9.69;100.00
23659;BME280;12006;42.666;23.326;2023-03-01T09:36:14;-24105.44;;;9.62;100.00
23659;BME280;12006;42.666;23.326;2023-03-01T09:38:40;-24106.47;;;9.64;100.00
23659;BME280;12006;42.666;23.326;2023-03-01T09:41:11;-24098.56;;;9.42;100.00
23659;BME280;12006;42.666;23.326;2023-03-01T09:44:00;-24102.34;;;9.53;100.00
23659;BME280;12006;42.666;23.326;2023-03-01T09:46:29;-24104.41;;;9.59;100.00
23659;BME280;12006;42.666;23.326;2023-03-01T09:49:10;-24101.31;;;9.50;100.00
23659;BME280;12006;42.666;23.326;2023-03-01T09:51:36;-24096.34;;;9.35;100.00
23659;BME280;12006;42.666;23.326;2023-03-01T09:54:04;-24099.25;;;9.44;100.00
23659;BME280;12006;42.666;23.326;2023-03-01T10:06:38;-24112.66;;;9.82;100.00
23659;BME280;12006;42.666;23.326;2023-03-01T10:09:13;-24109.03;;;9.72;100.00
23659;BME280;12006;42.666;23.326;2023-03-01T10:11:43;-24094.28;;;9.29;100.00
23659;BME280;12006;42.666;23.326;2023-03-01T10:14:57;-24094.78;;;9.31;100.00
23659;BME280;12006;42.666;23.326;2023-03-01T10:17:42;-24095.47;;;9.33;100.00
23659;BME280;12006;42.666;23.326;2023-03-01T10:20:24;-24094.78;;;9.31;100.00
23659;BME280;12006;42.666;23.326;2023-03-01T10:22:51;-24103.03;;;9.55;100.00
23659;BME280;12006;42.666;23.326;2023-03-01T10:28:16;-24104.59;;;9.59;100.00
23659;BME280;12006;42.666;23.326;2023-03-01T10:30:42;-24101.66;;;9.51;100.00
23659;BME280;12006;42.666;23.326;2023-03-01T10:33:23;-24102.69;;;9.54;100.00
23659;BME280;12006;42.666;23.326;2023-03-01T10:35:49;-24106.66;;;9.65;100.00
23659;BME280;12006;42.666;23.326;2023-03-01T10:38:16;-24116.09;;;9.92;100.00
23659;BME280;12006;42.666;23.326;2023-03-01T10:41:05;-24120.91;;;10.06;100.00
23659;BME280;12006;42.666;23.326;2023-03-01T10:43:52;-24118.50;;;9.99;100.00
23659;BME280;12006;42.666;23.326;2023-03-01T10:46:37;-24111.81;;;9.80;100.00
23659;BME280;12006;42.666;23.326;2023-03-01T10:49:20;-24116.44;;;9.93;100.00
23659;BME280;12006;42.666;23.326;2023-03-01T10:51:48;-24126.06;;;10.21;100.00
23659;BME280;12006;42.666;23.326;2023-03-01T10:54:32;-24119.34;;;10.02;100.00
23659;BME280;12006;42.666;23.326;2023-03-01T10:57:00;-24122.09;;;10.10;100.00
23659;BME280;12006;42.666;23.326;2023-03-01T10:59:32;-24127.09;;;10.24;100.00
23659;BME280;12006;42.666;23.326;2023-03-01T11:02:24;-24133.59;;;10.43;100.00
23659;BME280;12006;42.666;23.326;2023-03-01T11:05:02;-24144.94;;;10.76;100.00
23659;BME280;12006;42.666;23.326;2023-03-01T11:07:28;-24146.31;;;10.80;100.00
23659;BME280;12006;42.666;23.326;2023-03-01T11:09:54;-24148.88;;;10.87;100.00
23659;BME280;12006;42.666;23.326;2023-03-01T11:12:20;-24150.78;;;10.92;100.00
23659;BME280;12006;42.666;23.326;2023-03-01T11:14:48;-24150.44;;;10.91;100.00
23659;BME280;12006;42.666;23.326;2023-03-01T11:19:42;-24147.84;;;10.84;100.00
23659;BME280;12006;42.666;23.326;2023-03-01T11:22:16;-24139.78;;;10.61;100.00
23659;BME280;12006;42.666;23.326;2023-03-01T11:24:54;-24134.97;;;10.47;100.00
23659;BME280;12006;42.666;23.326;2023-03-01T11:30:16;-24139.28;;;10.59;100.00
23659;BME280;12006;42.666;23.326;2023-03-01T11:32:47;-24123.13;;;10.13;100.00
23659;BME280;12006;42.666;23.326;2023-03-01T11:35:21;-24125.19;;;10.19;100.00
23659;BME280;12006;42.666;23.326;2023-03-01T11:40:24;-24125.38;;;10.19;100.00
23659;BME280;12006;42.666;23.326;2023-03-01T11:43:15;-24132.22;;;10.39;100.00
23659;BME280;12006;42.666;23.326;2023-03-01T11:48:46;-24135.84;;;10.49;100.00
23659;BME280;12006;42.666;23.326;2023-03-01T11:51:23;-24141.00;;;10.64;100.00
23659;BME280;12006;42.666;23.326;2023-03-01T11:53:51;-24146.66;;;10.81;100.00
23659;BME280;12006;42.666;23.326;2023-03-01T11:59:12;-24129.50;;;10.31;100.00
23659;BME280;12006;42.666;23.326;2023-03-01T12:10:20;-24136.34;;;10.51;100.00
23659;BME280;12006;42.666;23.326;2023-03-01T12:12:56;-24137.72;;;10.55;100.00
23659;BME280;12006;42.666;23.326;2023-03-01T12:15:40;-24135.31;;;10.48;100.00
23659;BME280;12006;42.666;23.326;2023-03-01T12:21:02;-24142.69;;;10.69;100.00
23659;BME280;12006;42.666;23.326;2023-03-01T12:26:35;-24128.47;;;10.28;100.00
23659;BME280;12006;42.666;23.326;2023-03-01T12:34:43;-24120.38;;;10.05;100.00
23659;BME280;12006;42.666;23.326;2023-03-01T12:50:20;-24124.69;;;10.17;100.00
23659;BME280;12006;42.666;23.326;2023-03-01T12:52:55;-24125.53;;;10.20;100.00
23659;BME280;12006;42.666;23.326;2023-03-01T12:55:35;-24119.69;;;10.03;100.00
23659;BME280;12006;42.666;23.326;2023-03-01T13:09:14;-24136.34;;;10.51;100.00
23659;BME280;12006;42.666;23.326;2023-03-01T13:11:42;-24133.59;;;10.43;100.00
23659;BME280;12006;42.666;23.326;2023-03-01T13:16:45;-24141.50;;;10.66;100.00
23659;BME280;12006;42.666;23.326;2023-03-01T13:19:22;-24140.47;;;10.63;100.00
23659;BME280;12006;42.666;23.326;2023-03-01T13:21:49;-24139.09;;;10.59;100.00
23659;BME280;12006;42.666;23.326;2023-03-01T13:24:27;-24127.09;;;10.24;100.00
23659;BME280;12006;42.666;23.326;2023-03-01T13:29:48;-24132.75;;;10.40;100.00
23659;BME280;12006;42.666;23.326;2023-03-01T13:32:26;-24127.78;;;10.26;100.00
23659;BME280;12006;42.666;23.326;2023-03-01T13:35:01;-24131.72;;;10.37;100.00
23659;BME280;12006;42.666;23.326;2023-03-01T13:37:33;-24121.59;;;10.08;100.00
23659;BME280;12006;42.666;23.326;2023-03-01T13:40:57;-24122.09;;;10.10;100.00
23659;BME280;12006;42.666;23.326;2023-03-01T13:42:53;-24119.19;;;10.01;100.00
23659;BME280;12006;42.666;23.326;2023-03-01T13:45:22;-24116.09;;;9.92;100.00
23659;BME280;12006;42.666;23.326;2023-03-01T13:47:56;-24115.75;;;9.91;100.00
23659;BME280;12006;42.666;23.326;2023-03-01T13:50:25;-24109.38;;;9.73;100.00
23659;BME280;12006;42.666;23.326;2023-03-01T13:52:58;-24105.44;;;9.62;100.00
23659;BME280;12006;42.666;23.326;2023-03-01T13:55:29;-24106.31;;;9.64;100.00
23659;BME280;12006;42.666;23.326;2023-03-01T13:58:00;-24109.22;;;9.72;100.00
23659;BME280;12006;42.666;23.326;2023-03-01T14:00:38;-24102.53;;;9.53;100.00
23659;BME280;12006;42.666;23.326;2023-03-01T14:05:34;-24102.00;;;9.52;100.00
23659;BME280;12006;42.666;23.326;2023-03-01T14:08:05;-24104.41;;;9.59;100.00
23659;BME280;12006;42.666;23.326;2023-03-01T14:13:48;-24102.69;;;9.54;100.00
23659;BME280;12006;42.666;23.326;2023-03-01T14:16:30;-24104.06;;;9.58;100.00